Thompsonville, Michigan
Current Conditions -  °F | °C
As of 4:12 AM on Friday 19 Dec 2014 (Local Time) from KFKS Reporting Station
Clear Clear  
Wind Chill:   Ceiling: Unl
Heat Index:   Visibility: 10mi
Dew Point:   Wind: 0mph
Humidity: 94%   Direction: NA
Pressure: 30.26"   Gusts: NA
Location:  44.52°N, 85.94°W
Report Text: KFKS 190912Z AUTO 00000KT 10SM CLR M13/M14 A3026 RMK AO2 T11281136
Loading
Personal Weather Stations






























Interactive Weather Map New forecast layout! Learn more

10-Day Weather Forecast

Advertisements
Track Severe Weather on mobile